Tier

Alter: 51 Jahre
Land: Österreich
Schnopser seit: 18.08.2014
Fairness Rating: 100%
Gespielte Bummerl: 4632
Davon gewonnen: 2127
Siegesrate: 46%
ELO: 883

Turnierteilnahmen

Bisher noch kein Turnier gespielt


Die letzten 25 gespielten Bummerl

Zeit Gegner Ergebnis Ende Credits Elo
07:04:51 am 06.03.2018 Reinhard Tischler 3:7 normal -10 883 (-9)
07:01:30 am 06.03.2018 Gitti 50 0:7 normal -10 892 (-12)
06:59:04 am 06.03.2018 Gisi 0:7 normal -10 904 (-10)
06:55:56 am 06.03.2018 ATF 4:8 normal -10 914 (-7)
11:52:58 am 05.03.2018 Player 2:7 normal -10 921 (-10)
11:48:41 am 05.03.2018 justus 4:7 normal -10 931 (-10)
11:43:49 am 05.03.2018 Mäxx 9:3 normal 10 941 (11)
11:41:20 am 05.03.2018 Anastasia 5:7 normal -10 930 (-7)
11:37:00 am 05.03.2018 Helga 6:7 normal -10 937 (-7)
09:57:11 am 05.03.2018 gugug 5:8 normal -10 944 (-7)
09:52:29 am 05.03.2018 Fr.von Hr.Josef 6:9 normal -10 951 (-10)
09:45:36 am 05.03.2018 SM-G935F 0:8 normal -10 961 (-15)
09:40:52 am 05.03.2018 Franz Rauter 7:3 normal 10 976 (9)
07:09:26 am 05.03.2018 cheops 4:7 normal -10 967 (-9)
07:04:18 am 05.03.2018 Ismirfad 8:1 normal 10 976 (12)
06:59:32 am 05.03.2018 Nic 2:8 normal -10 964 (-9)
06:55:22 am 05.03.2018 Nic 7:6 normal 10 973 (11)
10:04:02 am 04.03.2018 Käfer Fan 5:9 normal -10 962 (-11)
09:59:40 am 04.03.2018 Ruth 7:5 normal 10 973 (8)
09:54:28 am 04.03.2018 GT-I9195 7:0 normal 10 965 (18)
09:52:05 am 04.03.2018 Harald Gei 5:7 normal -10 947 (-7)
20:28:51 am 02.03.2018 Sepp 2:8 normal -10 954 (-9)
20:22:15 am 02.03.2018 Speedy100 3:7 normal -10 963 (-9)
20:13:22 am 02.03.2018 Michael Lettner 4:7 normal -10 972 (-8)
20:10:39 am 02.03.2018 Michael Lettner 7:2 normal 10 980 (12)